TimeCDT,TemperatureF,Dew PointF,Humidity,Sea Level PressureIn,VisibilityMPH,Wind Direction,Wind SpeedMPH,Gust SpeedMPH,PrecipitationIn,Events,Conditions,WindDirDegrees,DateUTC
12:15 AM,37.6,30.6,76,30.04,10.0,West,6.9,-,N/A,,Overcast,260,2013-10-24 05:15:00
12:35 AM,37.6,30.4,75,30.04,10.0,West,6.9,-,N/A,,Overcast,260,2013-10-24 05:35:00
12:55 AM,37.6,30.6,76,30.04,10.0,West,5.8,-,N/A,,Overcast,260,2013-10-24 05:55:00
1:15 AM,37.6,30.7,76,30.05,10.0,West,8.1,-,N/A,,Overcast,260,2013-10-24 06:15:00
1:35 AM,37.2,31.1,79,30.05,10.0,WSW,5.8,-,N/A,,Overcast,250,2013-10-24 06:35:00
1:55 AM,37.4,31.1,78,30.05,10.0,West,6.9,-,N/A,,Overcast,260,2013-10-24 06:55:00
2:15 AM,37.4,31.5,79,30.05,10.0,West,6.9,-,N/A,,Overcast,260,2013-10-24 07:15:00
2:35 AM,37.0,31.6,81,30.05,10.0,West,5.8,-,N/A,,Overcast,260,2013-10-24 07:35:00
2:55 AM,37.0,32.0,82,30.05,10.0,West,6.9,-,N/A,,Overcast,270,2013-10-24 07:55:00
3:15 AM,37.0,32.0,82,30.05,10.0,West,5.8,-,N/A,,Overcast,270,2013-10-24 08:15:00
3:35 AM,36.7,32.2,84,30.05,10.0,West,6.9,-,N/A,,Overcast,260,2013-10-24 08:35:00
3:55 AM,36.9,32.2,83,30.05,10.0,WSW,6.9,-,N/A,,Overcast,250,2013-10-24 08:55:00
4:15 AM,36.7,32.5,85,30.05,10.0,West,5.8,-,N/A,,Overcast,260,2013-10-24 09:15:00
4:35 AM,36.7,32.9,86,30.06,10.0,West,4.6,-,N/A,,Overcast,260,2013-10-24 09:35:00
4:55 AM,36.5,33.1,87,30.06,10.0,West,5.8,-,N/A,,Overcast,260,2013-10-24 09:55:00
5:15 AM,36.5,33.3,88,30.06,10.0,West,5.8,-,N/A,,Overcast,260,2013-10-24 10:15:00
5:35 AM,36.5,33.4,89,30.07,10.0,West,5.8,-,N/A,,Overcast,260,2013-10-24 10:35:00
5:55 AM,36.5,33.6,89,30.07,10.0,West,4.6,-,N/A,,Overcast,270,2013-10-24 10:55:00
6:15 AM,36.3,33.6,90,30.07,10.0,West,4.6,-,N/A,,Overcast,260,2013-10-24 11:15:00
6:35 AM,36.1,33.8,91,30.08,10.0,West,4.6,-,N/A,,Overcast,270,2013-10-24 11:35:00
6:55 AM,36.1,33.1,89,30.08,10.0,West,5.8,-,N/A,,Overcast,270,2013-10-24 11:55:00
7:15 AM,36.5,32.0,84,30.09,10.0,West,6.9,-,N/A,,Overcast,280,2013-10-24 12:15:00
7:35 AM,36.5,31.6,83,30.09,10.0,West,5.8,-,N/A,,Overcast,280,2013-10-24 12:35:00
7:55 AM,36.5,31.3,81,30.10,10.0,WNW,4.6,-,N/A,,Overcast,290,2013-10-24 12:55:00
8:15 AM,36.5,30.2,78,30.11,10.0,NW,5.8,-,N/A,,Overcast,310,2013-10-24 13:15:00
8:35 AM,36.5,30.0,77,30.12,10.0,NW,9.2,-,N/A,,Overcast,310,2013-10-24 13:35:00
8:55 AM,36.7,30.2,77,30.13,10.0,WNW,6.9,-,N/A,,Overcast,300,2013-10-24 13:55:00
9:15 AM,36.9,29.5,75,30.14,10.0,NW,8.1,-,N/A,,Overcast,310,2013-10-24 14:15:00
9:35 AM,37.6,30.0,74,30.14,10.0,NW,8.1,-,N/A,,Overcast,320,2013-10-24 14:35:00
9:55 AM,38.3,29.8,72,30.15,10.0,WNW,10.4,-,N/A,,Overcast,300,2013-10-24 14:55:00
10:15 AM,39.9,29.1,65,30.15,10.0,NW,11.5,17.3,N/A,,Overcast,320,2013-10-24 15:15:00
10:35 AM,38.5,26.4,62,30.16,10.0,NW,11.5,17.3,N/A,,Overcast,320,2013-10-24 15:35:00
10:55 AM,38.8,28.9,68,30.17,10.0,NNW,10.4,-,N/A,,Overcast,330,2013-10-24 15:55:00
11:15 AM,39.4,27.3,62,30.17,10.0,NW,6.9,-,N/A,,Overcast,320,2013-10-24 16:15:00
11:35 AM,41.0,23.5,50,30.17,10.0,NW,9.2,16.1,N/A,,Mostly Cloudy,310,2013-10-24 16:35:00
11:55 AM,41.4,26.2,55,30.17,10.0,NW,10.4,-,N/A,,Mostly Cloudy,310,2013-10-24 16:55:00
12:15 PM,40.3,26.8,59,30.18,10.0,NNW,8.1,-,N/A,,Overcast,330,2013-10-24 17:15:00
12:35 PM,41.0,23.4,50,30.18,10.0,NW,9.2,-,N/A,,Overcast,310,2013-10-24 17:35:00
12:55 PM,42.1,23.4,48,30.18,10.0,NW,10.4,18.4,N/A,,Overcast,320,2013-10-24 17:55:00
1:15 PM,42.1,22.5,46,30.18,10.0,WNW,10.4,16.1,N/A,,Overcast,300,2013-10-24 18:15:00
1:35 PM,41.4,22.5,47,30.18,10.0,NW,10.4,-,N/A,,Overcast,310,2013-10-24 18:35:00
1:55 PM,42.1,21.4,44,30.19,10.0,NW,10.4,17.3,N/A,,Overcast,320,2013-10-24 18:55:00
2:15 PM,41.7,23.0,47,30.19,10.0,WNW,12.7,20.7,N/A,,Overcast,290,2013-10-24 19:15:00
2:35 PM,41.7,22.1,46,30.20,10.0,WNW,12.7,17.3,N/A,,Overcast,290,2013-10-24 19:35:00
2:55 PM,41.7,22.3,46,30.20,10.0,WNW,9.2,18.4,N/A,,Overcast,300,2013-10-24 19:55:00
3:15 PM,42.6,22.5,45,30.20,10.0,WNW,15.0,21.9,N/A,,Overcast,290,2013-10-24 20:15:00
3:35 PM,41.9,23.0,47,30.21,10.0,West,12.7,18.4,N/A,,Overcast,280,2013-10-24 20:35:00
3:55 PM,42.1,23.5,48,30.21,10.0,West,11.5,-,N/A,,Overcast,280,2013-10-24 20:55:00
3:56 PM,42.8,23.0,46,30.21,10.0,WNW,9.2,-,N/A,,Overcast,290,2013-10-24 20:56:00
4:15 PM,41.4,22.8,48,30.22,10.0,WNW,9.2,18.4,N/A,,Overcast,290,2013-10-24 21:15:00
4:35 PM,41.0,23.2,49,30.22,10.0,WNW,13.8,19.6,N/A,,Overcast,290,2013-10-24 21:35:00
4:55 PM,40.3,23.2,51,30.23,10.0,WNW,9.2,19.6,N/A,,Overcast,290,2013-10-24 21:55:00
5:15 PM,40.1,23.2,51,30.24,10.0,WNW,12.7,16.1,N/A,,Overcast,290,2013-10-24 22:15:00
5:35 PM,39.6,23.2,52,30.25,10.0,WNW,11.5,16.1,N/A,,Overcast,300,2013-10-24 22:35:00
5:55 PM,39.2,23.0,52,30.26,10.0,WNW,11.5,-,N/A,,Overcast,290,2013-10-24 22:55:00
6:15 PM,39.2,22.8,52,30.27,10.0,WNW,10.4,-,N/A,,Overcast,290,2013-10-24 23:15:00
6:35 PM,38.5,24.3,57,30.27,10.0,West,9.2,-,N/A,,Overcast,280,2013-10-24 23:35:00
6:55 PM,38.3,24.8,58,30.28,10.0,West,9.2,-,N/A,,Overcast,270,2013-10-24 23:55:00
7:15 PM,38.3,24.8,58,30.29,10.0,West,6.9,-,N/A,,Overcast,270,2013-10-25 00:15:00
7:35 PM,37.9,25.0,60,30.29,10.0,West,8.1,-,N/A,,Overcast,260,2013-10-25 00:35:00
7:55 PM,37.6,25.5,62,30.29,10.0,West,5.8,-,N/A,,Overcast,270,2013-10-25 00:55:00
8:15 PM,37.6,25.7,62,30.29,10.0,West,6.9,-,N/A,,Overcast,270,2013-10-25 01:15:00
8:35 PM,37.4,25.7,63,30.30,10.0,West,6.9,-,N/A,,Overcast,260,2013-10-25 01:35:00
8:55 PM,36.5,25.3,64,30.30,10.0,West,5.8,-,N/A,,Mostly Cloudy,260,2013-10-25 01:55:00
9:15 PM,34.9,25.7,69,30.31,10.0,West,4.6,-,N/A,,Scattered Clouds,270,2013-10-25 02:15:00
9:35 PM,33.8,25.7,72,30.31,10.0,West,3.5,-,N/A,,Mostly Cloudy,260,2013-10-25 02:35:00
9:55 PM,34.7,26.6,72,30.32,10.0,West,4.6,-,N/A,,Overcast,270,2013-10-25 02:55:00
10:15 PM,35.2,27.1,72,30.32,10.0,West,4.6,-,N/A,,Overcast,260,2013-10-25 03:15:00
10:35 PM,35.2,27.0,72,30.32,10.0,West,5.8,-,N/A,,Overcast,260,2013-10-25 03:35:00
10:55 PM,34.9,26.6,72,30.32,10.0,West,5.8,-,N/A,,Overcast,260,2013-10-25 03:55:00
11:15 PM,32.9,26.6,78,30.32,10.0,West,5.8,-,N/A,,Scattered Clouds,270,2013-10-25 04:15:00
11:35 PM,32.2,26.6,80,30.32,10.0,West,4.6,-,N/A,,Mostly Cloudy,260,2013-10-25 04:35:00
11:55 PM,32.4,27.0,80,30.32,10.0,West,5.8,-,N/A,,Overcast,270,2013-10-25 04:55:00